Hauptseite
METAR-TAF:

METAR-TAF

Flughäfen :

Leticia, Kolumbien

Breite: 04-10S, Länge: 069-57W, Höhe: 84 m

Beobachtung

Neuester Wetterbericht von vor 1 Stunde und 4 Minuten, um 10:00 UTC
Windstille
Temperatur 23°C
Luftfeuchtigkeit 100%
Luftdruck 1013 hPa
Sichtweite: 3000 m
Aufgelockert bewölkt in der Höhe von 200 ft
Nebelschwaden,

METAR: SKLT 221000Z 00000KT 9999 3000N BCFG SCT002 23/23 Q1013

Zeit: 06:04 (11:04 UTC)

Prognose

Neuester Wetterbericht von vor 6 Stunden und 34 Minuten, um 04:30 UTC
Gültige Prognose vom 22 um 06 UTC bis 23 um 06 UTC
Wind 2 kt aus unterschiedlichen Richtungen
Sichtweite 10 km oder mehr
Leicht bewölkt in der Höhe von 1500 ft

TAF: SKLT 220430Z 2206/2306 VRB02KT 9999 FEW015 TX33/2219Z TN22/2210Z

Wetterbeobachtungen und Prognosen von mehr als 4000 Flughäfen (METAR und TAF Bericht).

Die verfügbaren Stationen werden durch gelbe und rote Markierungen auf der Karte dargestellt.

Führen Sie die Maus auf sie, um den Namen der Station zu sehen.

Darauf klicken, um die Beobachtung von Wetterbeobachtungen und Prognosen zu sehen.

Um die Karte zu ändern : klicken Sie auf den grünen Tasten mit einem schwarzen Kreuz Zum Vergrößern, auf den grünen Button mit einem Gedankenstrich zu verkleinern, oder auf die grünen Pfeile für benachbarte Karten.


METAR-TAF: